createdAt,value
2023-05-21T00:02:13.207Z,18.75
2023-05-21T00:04:42.258Z,19.25
2023-05-21T00:07:10.976Z,18.50
2023-05-21T00:09:39.791Z,19.25
2023-05-21T00:12:09.999Z,19.50
2023-05-21T00:14:38.491Z,20.25
2023-05-21T00:17:07.602Z,20.50
2023-05-21T00:19:36.079Z,19.50
2023-05-21T00:22:05.414Z,19.00
2023-05-21T00:24:33.827Z,21.25
2023-05-21T00:27:02.235Z,19.50
2023-05-21T00:29:31.085Z,19.00
2023-05-21T00:31:59.497Z,20.00
2023-05-21T00:34:28.281Z,19.50
2023-05-21T00:36:58.201Z,18.50
2023-05-21T00:39:26.689Z,19.75
2023-05-21T00:41:55.109Z,18.00
2023-05-21T00:44:24.668Z,20.75
2023-05-21T00:46:54.660Z,17.75
2023-05-21T00:49:25.389Z,20.50
2023-05-21T00:51:53.986Z,19.00
2023-05-21T00:54:23.150Z,19.25
2023-05-21T00:56:52.563Z,20.25
2023-05-21T00:59:21.492Z,18.75
2023-05-21T01:01:56.978Z,19.25
2023-05-21T01:04:25.665Z,19.00
2023-05-21T01:06:54.536Z,18.75
2023-05-21T01:09:23.325Z,18.75
2023-05-21T01:11:53.102Z,19.00
2023-05-21T01:14:23.836Z,18.50
2023-05-21T01:16:53.355Z,19.75
2023-05-21T01:19:24.581Z,20.00
2023-05-21T01:22:03.568Z,18.25
2023-05-21T01:24:32.601Z,18.50
2023-05-21T01:27:04.092Z,18.25
2023-05-21T01:29:32.606Z,16.25
2023-05-21T01:32:15.982Z,18.50
2023-05-21T01:34:52.706Z,18.25
2023-05-21T01:37:51.860Z,19.75
2023-05-21T01:40:39.236Z,17.50
2023-05-21T01:43:08.976Z,18.50
2023-05-21T01:45:42.968Z,18.00
2023-05-21T01:48:13.491Z,19.25
2023-05-21T01:50:46.619Z,17.75
2023-05-21T01:53:17.194Z,18.50
2023-05-21T01:55:46.862Z,16.25
2023-05-21T01:58:16.683Z,18.50
2023-05-21T02:00:46.422Z,17.25
2023-05-21T02:03:18.463Z,17.00
2023-05-21T02:05:48.619Z,15.75
2023-05-21T02:08:17.132Z,17.75
2023-05-21T02:10:45.576Z,16.50
2023-05-21T02:13:14.030Z,19.25
2023-05-21T02:15:43.312Z,16.75
2023-05-21T02:18:12.274Z,17.75
2023-05-21T02:20:40.729Z,19.00
2023-05-21T02:23:09.704Z,19.25
2023-05-21T02:25:38.502Z,18.50
2023-05-21T02:28:07.758Z,18.75
2023-05-21T02:30:36.304Z,18.75
2023-05-21T02:33:04.832Z,18.50
2023-05-21T02:35:33.658Z,18.75
2023-05-21T02:38:03.937Z,16.00
2023-05-21T02:40:34.035Z,16.50
2023-05-21T02:43:02.433Z,17.25
2023-05-21T02:45:31.868Z,16.25
2023-05-21T02:48:00.303Z,18.50
2023-05-21T02:50:28.868Z,16.25
2023-05-21T02:52:57.254Z,17.25
2023-05-21T02:55:25.627Z,16.75
2023-05-21T02:57:53.985Z,16.25
2023-05-21T03:00:22.442Z,16.50
2023-05-21T03:02:50.876Z,14.75
2023-05-21T03:05:19.390Z,16.00
2023-05-21T03:07:48.148Z,18.25
2023-05-21T03:10:16.925Z,18.75
2023-05-21T03:12:45.359Z,16.25
2023-05-21T03:15:15.703Z,15.50
2023-05-21T03:17:45.376Z,17.50
2023-05-21T03:20:19.620Z,18.50
2023-05-21T03:22:49.164Z,16.50
2023-05-21T03:25:17.558Z,17.00
2023-05-21T03:27:45.993Z,15.25
2023-05-21T03:30:14.616Z,18.25
2023-05-21T03:32:45.923Z,17.25
2023-05-21T03:35:14.987Z,17.50
2023-05-21T03:37:43.440Z,17.00
2023-05-21T03:40:12.227Z,16.25
2023-05-21T03:42:40.601Z,15.75
2023-05-21T03:45:10.305Z,19.25
2023-05-21T03:47:38.762Z,15.75
2023-05-21T03:50:07.835Z,17.25
2023-05-21T03:52:36.347Z,16.75
2023-05-21T03:55:04.951Z,18.75
2023-05-21T03:57:33.753Z,16.50
2023-05-21T04:00:02.212Z,15.75
2023-05-21T04:02:30.764Z,15.00
2023-05-21T04:04:59.301Z,14.00
2023-05-21T04:07:28.059Z,15.25
2023-05-21T04:09:56.497Z,13.75
2023-05-21T04:12:24.932Z,15.50
2023-05-21T04:14:53.353Z,14.50
2023-05-21T04:17:21.953Z,14.75
2023-05-21T04:19:50.418Z,12.75
2023-05-21T04:22:18.798Z,15.00
2023-05-21T04:24:47.487Z,15.50
2023-05-21T04:27:17.564Z,14.50
2023-05-21T04:29:46.012Z,16.50
2023-05-21T04:32:16.084Z,16.50
2023-05-21T04:34:44.885Z,18.75
2023-05-21T04:37:13.431Z,16.00
2023-05-21T04:39:42.045Z,16.75
2023-05-21T04:42:11.800Z,17.75
2023-05-21T04:44:41.325Z,15.50
2023-05-21T04:47:09.896Z,16.50
2023-05-21T04:49:38.396Z,14.50
2023-05-21T04:52:06.923Z,15.50
2023-05-21T04:54:37.463Z,17.25
2023-05-21T04:57:06.757Z,15.75
2023-05-21T04:59:35.754Z,14.75
2023-05-21T05:02:04.500Z,18.00
2023-05-21T05:04:33.354Z,15.75
2023-05-21T05:07:01.984Z,14.00
2023-05-21T05:09:31.314Z,13.25
2023-05-21T05:11:59.783Z,13.25
2023-05-21T05:14:28.213Z,15.25
2023-05-21T05:17:00.827Z,13.25
2023-05-21T05:19:29.636Z,15.75
2023-05-21T05:21:58.196Z,14.25
2023-05-21T05:24:26.591Z,12.50
2023-05-21T05:26:54.973Z,12.50
2023-05-21T05:29:23.423Z,13.00
2023-05-21T05:31:51.847Z,13.00
2023-05-21T05:34:20.914Z,11.50
2023-05-21T05:36:49.277Z,13.75
2023-05-21T05:39:17.691Z,14.25
2023-05-21T05:41:46.055Z,13.00
2023-05-21T05:44:14.874Z,12.50
2023-05-21T05:46:43.436Z,14.75
2023-05-21T05:49:11.938Z,15.25
2023-05-21T05:51:40.365Z,12.50
2023-05-21T05:54:10.215Z,15.25
2023-05-21T05:56:38.587Z,12.50
2023-05-21T05:59:07.069Z,15.50
2023-05-21T06:01:35.520Z,14.00
2023-05-21T06:04:03.913Z,15.00
2023-05-21T06:06:32.614Z,13.00
2023-05-21T06:09:01.659Z,13.00
2023-05-21T06:11:30.672Z,12.75
2023-05-21T06:14:01.828Z,12.75
2023-05-21T06:16:32.461Z,12.50
2023-05-21T06:19:01.234Z,13.25
2023-05-21T06:21:29.742Z,13.50
2023-05-21T06:23:58.146Z,12.25
2023-05-21T06:26:27.289Z,12.25
2023-05-21T06:28:55.669Z,12.25
2023-05-21T06:31:24.103Z,12.00
2023-05-21T06:33:52.642Z,13.00
2023-05-21T06:36:21.367Z,12.75
2023-05-21T06:38:50.057Z,15.00
2023-05-21T06:41:18.494Z,13.00
2023-05-21T06:43:47.133Z,13.25
2023-05-21T06:46:15.790Z,15.50
2023-05-21T06:48:45.782Z,12.00
2023-05-21T06:51:14.387Z,14.50
2023-05-21T06:53:43.040Z,14.50
2023-05-21T06:56:11.463Z,11.50
2023-05-21T06:58:39.852Z,13.25
2023-05-21T07:01:08.490Z,14.50
2023-05-21T07:03:37.955Z,12.25
2023-05-21T07:06:06.455Z,11.25
2023-05-21T07:08:35.048Z,13.00
2023-05-21T07:11:03.489Z,13.50
2023-05-21T07:13:32.210Z,14.25
2023-05-21T07:16:00.626Z,12.25
2023-05-21T07:18:29.191Z,13.25
2023-05-21T07:20:58.112Z,14.50
2023-05-21T07:23:26.726Z,14.75
2023-05-21T07:25:55.405Z,12.25
2023-05-21T07:28:23.876Z,16.25
2023-05-21T07:30:52.278Z,14.50
2023-05-21T07:33:21.630Z,12.75
2023-05-21T07:35:50.358Z,13.50
2023-05-21T07:38:18.702Z,12.75
2023-05-21T07:40:48.289Z,12.25
2023-05-21T07:43:16.816Z,13.75
2023-05-21T07:45:45.217Z,14.25
2023-05-21T07:48:13.657Z,14.50
2023-05-21T07:50:42.568Z,13.25
2023-05-21T07:53:11.002Z,13.50
2023-05-21T07:55:39.424Z,16.75
2023-05-21T07:58:08.421Z,14.50
2023-05-21T08:00:48.208Z,15.00
2023-05-21T08:03:17.478Z,14.75
2023-05-21T08:05:49.614Z,12.25
2023-05-21T08:08:18.862Z,12.75
2023-05-21T08:10:48.796Z,13.25
2023-05-21T08:13:18.114Z,14.00
2023-05-21T08:15:46.678Z,13.50
2023-05-21T08:18:15.103Z,13.50
2023-05-21T08:20:43.562Z,14.00
2023-05-21T08:23:12.025Z,13.25
2023-05-21T08:25:40.442Z,13.50
2023-05-21T08:28:08.967Z,12.00
2023-05-21T08:30:37.583Z,14.75
2023-05-21T08:33:06.066Z,14.00
2023-05-21T08:35:34.723Z,13.75
2023-05-21T08:38:03.312Z,12.00
2023-05-21T08:40:32.068Z,14.50
2023-05-21T08:43:03.512Z,13.75
2023-05-21T08:45:39.507Z,12.00
2023-05-21T08:48:10.189Z,14.25
2023-05-21T08:50:39.130Z,12.75
2023-05-21T08:53:16.009Z,12.00
2023-05-21T08:55:55.055Z,12.00
2023-05-21T08:58:23.837Z,11.50
2023-05-21T09:00:52.490Z,11.25
2023-05-21T09:03:23.289Z,13.00
2023-05-21T09:05:52.709Z,15.00
2023-05-21T09:08:28.699Z,13.50
2023-05-21T09:10:57.222Z,13.25
2023-05-21T09:13:28.493Z,14.00
2023-05-21T09:15:57.124Z,14.25
2023-05-21T09:18:25.540Z,14.25
2023-05-21T09:20:54.971Z,15.25
2023-05-21T09:23:23.408Z,13.50
2023-05-21T09:25:54.067Z,11.50
2023-05-21T09:28:22.623Z,13.25
2023-05-21T09:30:55.139Z,13.75
2023-05-21T09:33:28.613Z,14.50
2023-05-21T09:35:57.528Z,12.00
2023-05-21T09:38:30.446Z,13.00
2023-05-21T09:40:59.057Z,14.25
2023-05-21T09:43:27.776Z,13.00
2023-05-21T09:46:01.839Z,11.50
2023-05-21T09:48:38.055Z,13.75
2023-05-21T09:51:13.388Z,13.25
2023-05-21T09:53:50.453Z,13.50
2023-05-21T09:56:27.451Z,12.00
2023-05-21T09:58:57.796Z,13.25
2023-05-21T10:01:26.529Z,12.50
2023-05-21T10:03:59.842Z,14.00
2023-05-21T10:06:29.980Z,12.75
2023-05-21T10:09:03.896Z,13.25
2023-05-21T10:11:35.066Z,13.25
2023-05-21T10:14:11.088Z,15.00
2023-05-21T10:16:39.606Z,13.25
2023-05-21T10:19:11.763Z,14.75
2023-05-21T10:21:41.087Z,12.50
2023-05-21T10:24:11.152Z,12.75
2023-05-21T10:26:40.761Z,15.00
2023-05-21T10:29:10.282Z,11.75
2023-05-21T10:31:41.742Z,15.25
2023-05-21T10:34:12.740Z,13.50
2023-05-21T10:36:42.435Z,13.75
2023-05-21T10:39:13.974Z,13.75
2023-05-21T10:42:02.490Z,13.50
2023-05-21T10:44:36.929Z,13.75
2023-05-21T10:47:27.766Z,14.00
2023-05-21T10:50:07.542Z,12.00
2023-05-21T10:53:03.694Z,13.75
2023-05-21T10:55:50.139Z,12.50
2023-05-21T10:58:44.460Z,13.00
2023-05-21T11:01:15.420Z,13.00
2023-05-21T11:03:44.380Z,13.50
2023-05-21T11:06:13.159Z,11.75
2023-05-21T11:08:49.231Z,12.00
2023-05-21T11:11:47.024Z,12.75
2023-05-21T11:14:33.510Z,13.00
2023-05-21T11:17:04.081Z,13.00
2023-05-21T11:19:38.307Z,13.25
2023-05-21T11:22:27.824Z,12.25
2023-05-21T11:24:57.578Z,11.25
2023-05-21T11:27:35.180Z,11.25
2023-05-21T11:30:23.703Z,11.50
2023-05-21T11:33:14.623Z,12.75
2023-05-21T11:36:04.389Z,12.50
2023-05-21T11:38:33.941Z,16.75
2023-05-21T11:41:05.702Z,15.00
2023-05-21T11:43:34.152Z,14.00
2023-05-21T11:46:03.636Z,13.50
2023-05-21T11:48:33.201Z,12.75
2023-05-21T11:51:03.152Z,14.25
2023-05-21T11:53:32.054Z,14.75
2023-05-21T11:56:03.307Z,15.75
2023-05-21T11:58:32.845Z,15.75
2023-05-21T12:01:01.211Z,15.75
2023-05-21T12:03:31.306Z,16.50
2023-05-21T12:06:07.534Z,16.25
2023-05-21T12:08:36.814Z,16.00
2023-05-21T12:11:05.721Z,18.00
2023-05-21T12:13:34.154Z,17.25
2023-05-21T12:16:06.560Z,18.75
2023-05-21T12:18:35.352Z,18.75
2023-05-21T12:21:03.843Z,18.25
2023-05-21T12:23:32.535Z,17.25
2023-05-21T12:26:01.206Z,16.75
2023-05-21T12:28:29.966Z,17.50
2023-05-21T12:30:58.336Z,19.00
2023-05-21T12:33:27.122Z,18.75
2023-05-21T12:35:55.638Z,18.00
2023-05-21T12:38:24.083Z,18.25
2023-05-21T12:40:52.503Z,19.00
2023-05-21T12:43:21.382Z,19.75
2023-05-21T12:45:49.881Z,20.50
2023-05-21T12:48:18.316Z,18.75
2023-05-21T12:50:46.831Z,16.00
2023-05-21T12:53:15.459Z,16.75
2023-05-21T12:55:43.872Z,19.50
2023-05-21T12:58:15.393Z,17.50
2023-05-21T13:00:45.059Z,19.50
2023-05-21T13:03:13.732Z,19.25
2023-05-21T13:05:43.003Z,19.25
2023-05-21T13:08:12.265Z,20.00
2023-05-21T13:10:40.688Z,19.50
2023-05-21T13:13:09.150Z,20.00
2023-05-21T13:15:37.675Z,20.25
2023-05-21T13:18:06.899Z,22.75
2023-05-21T13:20:35.461Z,24.25
2023-05-21T13:23:07.193Z,24.50
2023-05-21T13:25:36.809Z,25.00
2023-05-21T13:28:06.516Z,23.75
2023-05-21T13:30:35.137Z,22.00
2023-05-21T13:33:04.352Z,21.50
2023-05-21T13:35:33.295Z,23.25
2023-05-21T13:38:01.710Z,18.25
2023-05-21T13:40:30.176Z,16.25
2023-05-21T13:42:58.831Z,16.75
2023-05-21T13:45:29.952Z,16.50
2023-05-21T13:47:58.476Z,15.50
2023-05-21T13:50:27.050Z,14.75
2023-05-21T13:52:55.521Z,16.50
2023-05-21T13:55:24.375Z,16.00
2023-05-21T13:57:52.887Z,12.00
2023-05-21T14:00:21.339Z,8.50
2023-05-21T14:02:51.070Z,10.00
2023-05-21T14:05:19.679Z,9.75
2023-05-21T14:07:49.257Z,9.25
2023-05-21T14:10:17.989Z,11.00
2023-05-21T14:12:47.504Z,10.75
2023-05-21T14:15:16.059Z,9.50
2023-05-21T14:17:44.695Z,8.75
2023-05-21T14:20:13.682Z,9.75
2023-05-21T14:22:42.126Z,9.50
2023-05-21T14:25:11.225Z,7.25
2023-05-21T14:27:39.756Z,8.25
2023-05-21T14:30:09.107Z,8.00
2023-05-21T14:32:37.735Z,10.00
2023-05-21T14:35:06.955Z,9.00
2023-05-21T14:37:35.468Z,7.25
2023-05-21T14:40:06.448Z,9.00
2023-05-21T14:42:37.584Z,6.75
2023-05-21T14:45:18.264Z,6.00
2023-05-21T14:47:48.746Z,7.00
2023-05-21T14:50:18.374Z,7.00
2023-05-21T14:52:47.154Z,8.00
2023-05-21T14:55:17.491Z,7.50
2023-05-21T14:57:46.249Z,7.25
2023-05-21T15:00:15.132Z,5.25
2023-05-21T15:02:43.662Z,7.25
2023-05-21T15:05:12.249Z,6.75
2023-05-21T15:07:40.783Z,6.50
2023-05-21T15:10:10.313Z,8.00
2023-05-21T15:12:42.518Z,6.75
2023-05-21T15:15:13.137Z,6.75
2023-05-21T15:17:41.990Z,8.00
2023-05-21T15:20:11.369Z,8.00
2023-05-21T15:22:40.496Z,8.50
2023-05-21T15:25:09.310Z,8.25
2023-05-21T15:27:37.801Z,8.25
2023-05-21T15:30:07.919Z,7.00
2023-05-21T15:32:36.443Z,8.25
2023-05-21T15:35:05.066Z,7.50
2023-05-21T15:37:34.073Z,10.25
2023-05-21T15:40:03.404Z,7.25
2023-05-21T15:42:32.610Z,8.75
2023-05-21T15:45:01.141Z,8.50
2023-05-21T15:47:29.650Z,9.00
2023-05-21T15:49:59.650Z,8.00
2023-05-21T15:52:28.151Z,8.75
2023-05-21T15:54:56.642Z,9.25
2023-05-21T15:57:25.057Z,9.00
2023-05-21T15:59:53.558Z,10.50
2023-05-21T16:02:22.026Z,8.50
2023-05-21T16:04:52.652Z,9.00
2023-05-21T16:07:21.108Z,10.00
2023-05-21T16:09:49.610Z,9.75
2023-05-21T16:12:18.523Z,9.25
2023-05-21T16:14:50.965Z,10.00
2023-05-21T16:17:23.111Z,9.50
2023-05-21T16:19:51.663Z,7.75
2023-05-21T16:22:21.664Z,8.00
2023-05-21T16:24:50.156Z,11.50
2023-05-21T16:27:18.734Z,8.75
2023-05-21T16:29:47.372Z,11.50
2023-05-21T16:32:16.132Z,10.50
2023-05-21T16:34:45.689Z,9.50
2023-05-21T16:37:14.231Z,10.00
2023-05-21T16:39:42.648Z,9.25
2023-05-21T16:42:11.065Z,10.50
2023-05-21T16:44:40.208Z,9.25
2023-05-21T16:47:08.628Z,10.25
2023-05-21T16:49:37.120Z,11.25
2023-05-21T16:52:06.256Z,10.25
2023-05-21T16:54:35.323Z,8.75
2023-05-21T16:57:03.775Z,9.75
2023-05-21T16:59:32.217Z,10.75
2023-05-21T17:02:00.884Z,11.25
2023-05-21T17:04:30.017Z,9.50
2023-05-21T17:06:58.554Z,11.00
2023-05-21T17:09:27.187Z,11.50
2023-05-21T17:11:55.620Z,13.00
2023-05-21T17:14:33.827Z,9.75
2023-05-21T17:17:03.443Z,11.00
2023-05-21T17:19:32.345Z,10.25
2023-05-21T17:22:00.894Z,11.00
2023-05-21T17:24:29.421Z,11.00
2023-05-21T17:26:57.936Z,10.50
2023-05-21T17:29:26.869Z,10.00
2023-05-21T17:31:55.659Z,11.75
2023-05-21T17:34:27.216Z,12.00
2023-05-21T17:36:56.261Z,12.00
2023-05-21T17:39:24.847Z,14.25
2023-05-21T17:41:53.716Z,11.25
2023-05-21T17:44:22.600Z,10.25
2023-05-21T17:46:52.151Z,12.25
2023-05-21T17:49:20.744Z,11.50
2023-05-21T17:51:49.417Z,10.25
2023-05-21T17:54:17.923Z,11.25
2023-05-21T17:56:46.697Z,11.50
2023-05-21T17:59:15.927Z,11.00
2023-05-21T18:01:44.450Z,11.75
2023-05-21T18:04:14.042Z,10.75
2023-05-21T18:06:42.586Z,9.25
2023-05-21T18:09:16.128Z,13.50
2023-05-21T18:11:47.765Z,12.25
2023-05-21T18:14:16.549Z,12.50
2023-05-21T18:16:45.156Z,11.50
2023-05-21T18:19:14.083Z,9.75
2023-05-21T18:21:42.615Z,9.25
2023-05-21T18:24:11.119Z,11.00
2023-05-21T18:26:39.552Z,11.50
2023-05-21T18:29:08.106Z,12.50
2023-05-21T18:31:36.572Z,12.50
2023-05-21T18:34:05.062Z,11.25
2023-05-21T18:36:40.353Z,12.25
2023-05-21T18:39:10.660Z,13.25
2023-05-21T18:41:40.707Z,11.25
2023-05-21T18:44:09.258Z,13.00
2023-05-21T18:46:38.464Z,11.25
2023-05-21T18:49:06.904Z,12.00
2023-05-21T18:51:35.348Z,10.75
2023-05-21T18:54:03.868Z,13.50
2023-05-21T18:56:32.415Z,13.75
2023-05-21T18:59:00.896Z,11.75
2023-05-21T19:01:29.645Z,12.50
2023-05-21T19:03:58.355Z,13.75
2023-05-21T19:06:28.622Z,13.00
2023-05-21T19:08:57.080Z,11.25
2023-05-21T19:11:28.441Z,13.25
2023-05-21T19:13:56.850Z,14.75
2023-05-21T19:16:25.294Z,10.50
2023-05-21T19:18:53.718Z,11.00
2023-05-21T19:21:22.243Z,12.50
2023-05-21T19:23:53.187Z,12.00
2023-05-21T19:26:23.667Z,13.25
2023-05-21T19:28:54.233Z,14.00
2023-05-21T19:31:24.000Z,14.75
2023-05-21T19:33:52.802Z,15.75
2023-05-21T19:36:22.307Z,13.50
2023-05-21T19:38:52.173Z,14.50
2023-05-21T19:41:22.941Z,14.00
2023-05-21T19:43:52.432Z,13.25
2023-05-21T19:46:21.278Z,12.00
2023-05-21T19:48:50.496Z,13.75
2023-05-21T19:51:19.322Z,15.75
2023-05-21T19:53:47.726Z,14.75
2023-05-21T19:56:17.052Z,11.75
2023-05-21T19:58:48.912Z,14.50
2023-05-21T20:01:18.264Z,12.50
2023-05-21T20:03:46.987Z,12.50
2023-05-21T20:06:17.841Z,15.00
2023-05-21T20:08:46.254Z,12.75
2023-05-21T20:11:14.683Z,14.00
2023-05-21T20:13:43.368Z,14.00
2023-05-21T20:16:14.161Z,15.75
2023-05-21T20:18:42.622Z,14.25
2023-05-21T20:21:11.442Z,15.75
2023-05-21T20:23:40.138Z,14.00
2023-05-21T20:26:08.727Z,13.00
2023-05-21T20:28:38.249Z,12.50
2023-05-21T20:31:06.943Z,14.75
2023-05-21T20:33:40.041Z,14.00
2023-05-21T20:36:08.999Z,12.75
2023-05-21T20:38:38.956Z,14.00
2023-05-21T20:41:07.523Z,12.75
2023-05-21T20:43:38.331Z,14.25
2023-05-21T20:46:06.935Z,14.25
2023-05-21T20:48:36.193Z,13.75
2023-05-21T20:51:05.423Z,13.00
2023-05-21T20:53:34.690Z,12.50
2023-05-21T20:56:03.093Z,12.50
2023-05-21T20:58:32.388Z,12.25
2023-05-21T21:01:02.736Z,15.00
2023-05-21T21:03:34.655Z,14.25
2023-05-21T21:06:04.042Z,13.25
2023-05-21T21:08:32.476Z,13.00
2023-05-21T21:11:00.896Z,12.25
2023-05-21T21:13:29.284Z,12.25
2023-05-21T21:15:57.685Z,14.50
2023-05-21T21:18:26.101Z,11.50
2023-05-21T21:20:54.971Z,15.50
2023-05-21T21:23:25.982Z,13.25
2023-05-21T21:25:54.383Z,13.50
2023-05-21T21:28:22.750Z,12.75
2023-05-21T21:30:51.293Z,14.50
2023-05-21T21:33:19.684Z,13.00
2023-05-21T21:35:48.120Z,10.50
2023-05-21T21:38:16.813Z,11.25
2023-05-21T21:40:45.476Z,13.25
2023-05-21T21:43:13.829Z,13.25
2023-05-21T21:45:42.299Z,14.00
2023-05-21T21:48:10.836Z,13.25
2023-05-21T21:50:39.407Z,12.50
2023-05-21T21:53:07.891Z,13.50
2023-05-21T21:55:36.307Z,14.00
2023-05-21T21:58:04.730Z,13.75
2023-05-21T22:00:33.120Z,13.00
2023-05-21T22:03:01.586Z,13.25
2023-05-21T22:05:31.745Z,13.50
2023-05-21T22:08:00.138Z,13.00
2023-05-21T22:10:28.554Z,12.25
2023-05-21T22:12:57.267Z,15.00
2023-05-21T22:15:28.298Z,13.50
2023-05-21T22:17:56.921Z,12.50
2023-05-21T22:20:30.208Z,14.00
2023-05-21T22:22:58.937Z,12.00
2023-05-21T22:25:27.381Z,14.25
2023-05-21T22:27:55.865Z,13.75
2023-05-21T22:30:24.320Z,13.50
2023-05-21T22:32:52.767Z,14.25
2023-05-21T22:35:21.285Z,14.50
2023-05-21T22:37:49.990Z,14.25
2023-05-21T22:40:18.773Z,16.25
2023-05-21T22:42:48.158Z,13.50
2023-05-21T22:45:17.010Z,13.75
2023-05-21T22:47:45.441Z,14.50
2023-05-21T22:50:13.971Z,14.00
2023-05-21T22:52:42.869Z,13.50
2023-05-21T22:55:12.519Z,14.50
2023-05-21T22:57:41.195Z,13.50
2023-05-21T23:00:11.617Z,12.00
2023-05-21T23:02:40.164Z,16.25
2023-05-21T23:05:08.978Z,14.00
2023-05-21T23:07:37.438Z,13.50
2023-05-21T23:10:06.306Z,11.75
2023-05-21T23:12:34.809Z,15.00
2023-05-21T23:15:06.330Z,14.25
2023-05-21T23:17:35.364Z,10.50
2023-05-21T23:20:03.935Z,14.25
2023-05-21T23:22:32.607Z,14.25
2023-05-21T23:25:01.050Z,12.50
2023-05-21T23:27:30.105Z,15.00
2023-05-21T23:29:58.461Z,14.50
2023-05-21T23:32:27.206Z,14.75
2023-05-21T23:34:55.603Z,17.25
2023-05-21T23:37:24.377Z,15.00
2023-05-21T23:39:52.913Z,14.50
2023-05-21T23:42:21.454Z,16.75
2023-05-21T23:44:49.932Z,19.00
2023-05-21T23:47:18.308Z,18.00
2023-05-21T23:49:46.803Z,20.00
2023-05-21T23:52:18.123Z,18.25
2023-05-21T23:54:46.956Z,19.75
2023-05-21T23:57:15.459Z,17.50
2023-05-21T23:59:43.916Z,17.25
